Upstream stations:
Downstream station:
SHEF ID: SDFO2 Deep Fork River at Stroud
STATION TYPE:
PRECIP STAGE RIV-FLOW VOLTAGE BAT-LOAD
in ft cfs volt volt
Ccp-Rev Ccp-Rev Ccp-Rev Ccp-Rev Ccp-Rev
(US/Central)
07/26 00:00 0.00 14.19 1281 12.65 12.57
07/26 01:00 0.00 14.20 1284 12.65 12.57
07/26 02:00 0.00 14.18 1277 12.65 12.57
07/26 03:00 0.00 14.13 1261 12.65 12.57
07/26 04:00 0.00 14.12 1257 12.65 12.57
07/26 05:00 0.00 14.14 1264 12.65 12.49
07/26 06:00 0.00 14.15 1267 12.57 12.49
07/26 07:00 0.00 14.16 1271 12.57 12.49
07/26 08:00 0.00 14.18 1277 12.65 12.49
07/26 09:00 0.00 14.21 1287 12.65 12.57
07/26 10:00 0.00 14.20 1284 12.89 12.73
07/26 11:00 0.00 14.19 1281 13.13 12.97
07/26 12:00 0.00 14.15 1267 13.29 13.13
07/26 13:00 0.00 14.05 1234 13.29 13.13
07/26 14:00 0.00 14.09 1247 ---- ----
07/26 15:00 0.00 14.09 1247 13.29 13.13
07/26 16:00 0.00 14.11 1254 13.21 13.05
07/26 17:00 0.00 14.12 1257 12.97 12.89
07/26 18:00 0.00 14.13 1261 12.81 12.73
07/26 19:00 0.00 14.14 1264 12.73 12.65
07/26 20:00 0.00 14.14 1264 12.73 12.65
07/26 21:00 0.00 14.18 1277 12.73 12.65
07/26 22:00 0.00 14.16 1271 12.65 12.57
07/26 23:00 ---- ---- ---- ---- ----